Time;durP1;ratioP1;P1;durP2;ratioP2;P2;SDS_P1;SDS_P2;PMS_P1;PMS_P2;Temp;Humidity;BMP_temperature;BMP_pressure;BME280_temperature;BME280_humidity;BME280_pressure;Samples;Min_cycle;Max_cycle;Signal;HPM_P1;HPM_P2
2022/11/12 00:00:03;;;;;;;7.60;3.50;;;6.90;99.90;;;;;;2070752;28;20564;-70
2022/11/12 00:01:03;;;;;;;3.47;3.17;;;6.80;99.90;;;;;;2071015;28;20029;-70
2022/11/12 00:02:04;;;;;;;6.40;3.70;;;6.80;99.90;;;;;;2068569;28;20018;-70
2022/11/12 00:03:05;;;;;;;3.88;3.17;;;6.80;99.90;;;;;;2069918;28;20546;-70
2022/11/12 00:04:06;;;;;;;4.00;2.95;;;6.80;99.90;;;;;;2069514;28;20727;-70
2022/11/12 00:05:07;;;;;;;3.25;2.90;;;6.80;99.90;;;;;;2069456;28;20033;-70
2022/11/12 00:06:08;;;;;;;3.45;2.80;;;6.80;99.90;;;;;;2067728;28;20018;-70
2022/11/12 00:07:08;;;;;;;4.90;3.40;;;6.80;99.90;;;;;;2069505;28;20037;-70
2022/11/12 00:08:09;;;;;;;3.72;3.30;;;6.80;99.90;;;;;;2069639;28;20037;-70
2022/11/12 00:09:10;;;;;;;4.55;3.40;;;6.80;99.90;;;;;;2070023;28;20136;-70
2022/11/12 00:10:10;;;;;;;3.17;2.85;;;6.80;99.90;;;;;;2069260;28;20034;-70
2022/11/12 00:11:11;;;;;;;3.17;2.75;;;6.80;99.90;;;;;;2078672;28;21038;-70
2022/11/12 00:12:11;;;;;;;3.25;2.60;;;6.70;99.90;;;;;;2078296;28;20040;-70
2022/11/12 00:13:12;;;;;;;4.47;3.35;;;6.70;99.90;;;;;;2070544;28;20100;-70
2022/11/12 00:14:13;;;;;;;5.20;3.28;;;6.70;99.90;;;;;;2071220;28;20053;-70
2022/11/12 00:15:13;;;;;;;4.15;3.00;;;6.70;99.90;;;;;;2068494;28;20040;-70
2022/11/12 00:16:14;;;;;;;4.00;3.03;;;6.70;99.90;;;;;;2068943;28;20033;-70
2022/11/12 00:17:14;;;;;;;4.90;3.15;;;6.70;99.90;;;;;;2070684;28;20052;-71
2022/11/12 00:18:15;;;;;;;3.30;2.92;;;6.70;99.90;;;;;;2070641;28;20091;-71
2022/11/12 00:19:16;;;;;;;4.10;3.00;;;6.70;99.90;;;;;;2070464;28;20022;-71
2022/11/12 00:20:16;;;;;;;3.22;2.83;;;6.70;99.90;;;;;;2068761;28;20026;-71
2022/11/12 00:21:17;;;;;;;4.28;3.10;;;6.70;99.90;;;;;;2070105;28;20030;-71
2022/11/12 00:22:17;;;;;;;5.03;3.22;;;6.70;99.90;;;;;;2069812;28;20030;-71
2022/11/12 00:23:18;;;;;;;3.88;2.97;;;6.60;99.90;;;;;;2068647;28;20034;-71
2022/11/12 00:24:18;;;;;;;4.00;3.30;;;6.60;99.90;;;;;;2069178;28;20026;-70
2022/11/12 00:25:19;;;;;;;3.28;2.97;;;6.60;99.90;;;;;;2069800;28;20132;-70
2022/11/12 00:26:19;;;;;;;4.13;3.22;;;6.60;99.90;;;;;;2069646;28;20022;-70
2022/11/12 00:27:20;;;;;;;3.78;2.90;;;6.60;99.90;;;;;;2070405;28;20561;-71
2022/11/12 00:28:20;;;;;;;3.70;3.20;;;6.60;99.90;;;;;;2068680;28;20761;-70
2022/11/12 00:29:21;;;;;;;2.72;2.35;;;6.60;99.90;;;;;;2070306;28;20053;-70
2022/11/12 00:30:21;;;;;;;2.97;2.78;;;6.60;99.90;;;;;;2070359;28;20057;-70
2022/11/12 00:31:22;;;;;;;3.63;2.92;;;6.60;99.90;;;;;;2070415;28;20025;-70
2022/11/12 00:32:23;;;;;;;6.53;3.13;;;6.60;99.90;;;;;;2070657;28;20038;-70
2022/11/12 00:33:23;;;;;;;3.33;3.03;;;6.60;99.90;;;;;;2067531;28;20029;-70
2022/11/12 00:34:24;;;;;;;3.13;2.83;;;6.60;99.90;;;;;;2068637;28;20525;-70
2022/11/12 00:35:24;;;;;;;3.17;2.80;;;6.50;99.90;;;;;;2068787;28;20053;-70
2022/11/12 00:36:25;;;;;;;3.30;2.97;;;6.50;99.90;;;;;;2070457;28;20026;-71
2022/11/12 00:37:25;;;;;;;3.97;3.13;;;6.50;99.90;;;;;;2069599;28;20136;-70
2022/11/12 00:38:29;;;;;;;3.90;3.13;;;6.50;99.90;;;;;;2072917;28;20029;-70
2022/11/12 00:39:29;;;;;;;4.50;3.20;;;6.50;99.90;;;;;;2070713;28;20029;-70
2022/11/12 00:40:30;;;;;;;3.13;2.83;;;6.50;99.90;;;;;;2071022;28;20060;-71
2022/11/12 00:41:30;;;;;;;4.75;2.92;;;6.50;99.90;;;;;;2068458;28;20954;-70
2022/11/12 00:42:31;;;;;;;3.80;3.35;;;6.50;99.90;;;;;;2069794;28;20093;-70
2022/11/12 00:43:31;;;;;;;5.90;2.80;;;6.50;99.90;;;;;;2069143;28;20104;-70
2022/11/12 00:44:32;;;;;;;5.97;2.97;;;6.50;99.90;;;;;;2069959;28;20032;-70
2022/11/12 00:45:33;;;;;;;5.18;3.05;;;6.50;99.90;;;;;;2070389;28;20108;-70
2022/11/12 00:46:33;;;;;;;3.28;2.70;;;6.50;99.90;;;;;;2069714;28;20048;-70
2022/11/12 00:47:33;;;;;;;3.08;2.78;;;6.50;99.90;;;;;;2068682;28;20030;-70
2022/11/12 00:48:34;;;;;;;4.13;2.80;;;6.50;99.90;;;;;;2068692;28;20065;-70
2022/11/12 00:49:34;;;;;;;5.07;3.10;;;6.50;99.90;;;;;;2068193;28;20073;-70
2022/11/12 00:50:35;;;;;;;3.42;2.90;;;6.40;99.90;;;;;;2069211;28;20034;-71
2022/11/12 00:51:35;;;;;;;3.42;2.65;;;6.40;99.90;;;;;;2069464;28;20061;-71
2022/11/12 00:52:36;;;;;;;3.90;3.55;;;6.40;99.90;;;;;;2069239;28;20030;-71
2022/11/12 00:53:37;;;;;;;4.13;3.30;;;6.50;99.90;;;;;;2069316;28;20044;-70
2022/11/12 00:54:37;;;;;;;3.28;2.97;;;6.40;99.90;;;;;;2067704;28;20041;-70
2022/11/12 00:55:38;;;;;;;3.13;2.80;;;6.40;99.90;;;;;;2068985;28;20034;-71
2022/11/12 00:56:38;;;;;;;3.55;3.03;;;6.40;99.90;;;;;;2069572;28;20715;-71
2022/11/12 00:57:39;;;;;;;5.13;3.00;;;6.40;99.90;;;;;;2069653;28;20087;-71
2022/11/12 00:58:39;;;;;;;4.43;3.15;;;6.40;99.90;;;;;;2071262;28;20026;-71
2022/11/12 00:59:40;;;;;;;4.75;2.65;;;6.40;99.90;;;;;;2071549;28;20129;-71
2022/11/12 01:00:40;;;;;;;3.72;3.00;;;6.40;99.90;;;;;;2069478;28;20030;-71
2022/11/12 01:01:41;;;;;;;3.40;2.78;;;6.40;99.90;;;;;;2071136;28;20028;-71
2022/11/12 01:02:41;;;;;;;3.35;2.90;;;6.40;99.90;;;;;;2070211;28;20022;-70
2022/11/12 01:03:42;;;;;;;3.58;3.17;;;6.40;99.90;;;;;;2070130;28;20037;-70
2022/11/12 01:04:43;;;;;;;3.92;3.38;;;6.30;99.90;;;;;;2069899;28;20137;-70
2022/11/12 01:05:43;;;;;;;3.40;3.03;;;6.30;99.90;;;;;;2070481;28;20060;-70
2022/11/12 01:06:44;;;;;;;3.63;3.10;;;6.30;99.90;;;;;;2069179;28;20079;-70
2022/11/12 01:07:45;;;;;;;3.55;3.10;;;6.30;99.90;;;;;;2069692;28;20018;-70
2022/11/12 01:08:47;;;;;;;3.50;2.70;;;6.30;99.90;;;;;;2067991;28;20026;-72
2022/11/12 01:09:47;;;;;;;3.47;3.10;;;6.30;99.90;;;;;;2069530;28;20076;-70
2022/11/12 01:10:48;;;;;;;3.25;2.80;;;6.30;99.90;;;;;;2071185;28;20093;-70
2022/11/12 01:11:48;;;;;;;3.72;3.30;;;6.30;99.90;;;;;;2067856;28;20034;-70
2022/11/12 01:12:49;;;;;;;3.53;2.80;;;6.30;99.90;;;;;;2068141;28;20023;-70
2022/11/12 01:13:58;;;;;;;3.58;2.97;;;6.30;99.90;;;;;;2069055;28;20713;-71
2022/11/12 01:14:58;;;;;;;4.22;3.17;;;6.30;99.90;;;;;;2070163;28;20541;-71
2022/11/12 01:16:07;;;;;;;3.88;3.15;;;6.30;99.90;;;;;;2071352;28;20386;-70
2022/11/12 01:17:07;;;;;;;5.60;3.25;;;6.20;99.90;;;;;;2071745;28;20029;-70
2022/11/12 01:18:08;;;;;;;3.10;2.80;;;6.30;99.90;;;;;;2072095;28;20037;-70
2022/11/12 01:19:11;;;;;;;4.75;3.90;;;6.30;99.90;;;;;;2072558;28;20030;-70
2022/11/12 01:20:11;;;;;;;3.95;3.28;;;6.30;99.90;;;;;;2071607;28;20374;-70
2022/11/12 01:21:13;;;;;;;3.60;3.17;;;6.20;99.90;;;;;;2070995;28;20044;-70
2022/11/12 01:22:14;;;;;;;4.80;3.47;;;6.30;99.90;;;;;;2071426;28;20034;-70
2022/11/12 01:23:14;;;;;;;3.38;3.08;;;6.20;99.90;;;;;;2070602;28;20026;-70
2022/11/12 01:24:15;;;;;;;4.10;3.58;;;6.20;99.90;;;;;;2069601;28;20033;-70
2022/11/12 01:25:15;;;;;;;3.72;3.00;;;6.20;99.90;;;;;;2070153;28;20025;-70
2022/11/12 01:26:18;;;;;;;4.50;2.80;;;6.20;99.90;;;;;;2069123;28;20034;-71
2022/11/12 01:27:19;;;;;;;3.97;2.65;;;6.20;99.90;;;;;;2073318;28;20052;-71
2022/11/12 01:28:19;;;;;;;3.33;3.00;;;6.20;99.90;;;;;;2069685;28;20026;-71
2022/11/12 01:29:20;;;;;;;3.33;2.97;;;6.20;99.90;;;;;;2071022;28;20101;-71
2022/11/12 01:30:20;;;;;;;5.63;3.67;;;6.20;99.90;;;;;;2070658;28;20021;-71
2022/11/12 01:31:25;;;;;;;3.78;3.05;;;6.20;99.90;;;;;;2070111;28;20049;-71
2022/11/12 01:32:26;;;;;;;3.88;3.20;;;6.20;99.90;;;;;;2071668;28;20180;-71
2022/11/12 01:33:27;;;;;;;4.43;3.10;;;6.20;99.90;;;;;;2070368;28;20080;-70
2022/11/12 01:34:27;;;;;;;5.00;3.00;;;6.20;99.90;;;;;;2071789;28;20084;-70
2022/11/12 01:35:28;;;;;;;4.45;3.30;;;6.20;99.90;;;;;;2070007;28;20026;-70
2022/11/12 01:36:37;;;;;;;3.42;3.00;;;6.20;99.90;;;;;;2071609;28;20583;-70
2022/11/12 01:37:38;;;;;;;3.40;3.10;;;6.20;99.90;;;;;;2071625;28;20080;-70
2022/11/12 01:38:40;;;;;;;3.42;3.08;;;6.20;99.90;;;;;;2071100;28;20076;-71
2022/11/12 01:39:41;;;;;;;3.70;3.40;;;6.10;99.90;;;;;;2070324;28;20029;-70
2022/11/12 01:40:41;;;;;;;3.95;3.50;;;6.20;99.90;;;;;;2071469;28;20141;-70
2022/11/12 01:41:42;;;;;;;5.35;3.33;;;6.10;99.90;;;;;;2069244;28;20033;-71
2022/11/12 01:42:42;;;;;;;3.45;3.15;;;6.20;99.90;;;;;;2071044;28;20041;-70
2022/11/12 01:43:43;;;;;;;9.13;3.65;;;6.10;99.90;;;;;;2069670;28;20102;-70
2022/11/12 01:44:45;;;;;;;4.07;3.40;;;6.20;99.90;;;;;;2068517;28;20363;-70
2022/11/12 01:45:49;;;;;;;3.83;2.88;;;6.10;99.90;;;;;;2070495;28;20457;-70
2022/11/12 01:47:10;;;;;;;4.07;3.40;;;6.20;99.90;;;;;;2070327;28;20062;-70
2022/11/12 01:48:33;;;;;;;4.00;3.25;;;6.10;99.90;;;;;;2070776;28;20034;-70
2022/11/12 01:49:55;;;;;;;4.50;3.58;;;6.10;99.90;;;;;;2071066;28;20034;-71
2022/11/12 01:50:56;;;;;;;4.63;3.67;;;6.10;99.90;;;;;;2071031;28;20018;-71
2022/11/12 01:52:03;;;;;;;4.28;3.67;;;6.10;99.90;;;;;;2071930;28;20025;-70
2022/11/12 01:53:08;;;;;;;5.72;3.88;;;6.10;99.90;;;;;;2070371;28;20080;-70
2022/11/12 01:54:12;;;;;;;4.28;3.40;;;6.10;99.90;;;;;;2069772;28;20478;-70
2022/11/12 01:55:22;;;;;;;4.63;3.60;;;6.10;99.90;;;;;;2071727;28;20022;-70
2022/11/12 01:56:24;;;;;;;;;;;6.10;99.90;;;;;;2071520;28;20014;-70
2022/11/12 01:57:40;;;;;;;4.00;3.60;;;6.00;99.90;;;;;;2070591;28;19971;-70
2022/11/12 01:58:43;;;;;;;5.05;4.05;;;6.00;99.90;;;;;;2071476;28;20112;-70
2022/11/12 01:59:45;;;;;;;3.90;3.50;;;6.00;99.90;;;;;;2071183;28;20045;-70
2022/11/12 02:00:47;;;;;;;4.60;3.83;;;6.00;99.90;;;;;;2070874;28;20037;-70
2022/11/12 02:01:47;;;;;;;4.25;3.85;;;6.00;99.90;;;;;;2068804;28;20034;-70
2022/11/12 02:02:56;;;;;;;4.97;4.15;;;6.00;99.90;;;;;;2068938;28;20057;-70
2022/11/12 02:03:57;;;;;;;6.10;3.40;;;6.00;99.90;;;;;;2069678;28;20072;-70
2022/11/12 02:04:58;;;;;;;6.72;4.30;;;6.00;99.90;;;;;;2071285;28;20038;-70
2022/11/12 02:06:04;;;;;;;5.80;4.55;;;6.00;99.90;;;;;;2071306;28;20034;-71
2022/11/12 02:07:06;;;;;;;7.03;4.53;;;6.00;99.90;;;;;;2070136;28;20038;-71
2022/11/12 02:08:10;;;;;;;4.30;3.85;;;6.00;99.90;;;;;;2071749;28;20644;-70
2022/11/12 02:09:11;;;;;;;4.07;3.53;;;6.00;99.90;;;;;;2070790;28;20022;-70
2022/11/12 02:10:13;;;;;;;5.20;3.78;;;6.00;99.90;;;;;;2070556;28;20109;-71
2022/11/12 02:11:19;;;;;;;5.38;4.18;;;6.00;99.90;;;;;;2070927;28;20022;-71
2022/11/12 02:13:56;;;;;;;4.68;3.60;;;6.00;99.90;;;;;;2070745;28;20057;-71
2022/11/12 02:13:59;;;;;;;5.25;3.30;;;6.00;99.90;;;;;;2069577;28;20062;-71
2022/11/12 02:15:06;;;;;;;5.03;3.83;;;6.00;99.90;;;;;;2069688;28;20033;-70
2022/11/12 02:16:09;;;;;;;4.45;3.63;;;6.00;99.90;;;;;;2068397;28;20034;-70
2022/11/12 02:17:09;;;;;;;5.57;3.88;;;6.00;99.90;;;;;;2069196;28;20038;-70
2022/11/12 02:18:10;;;;;;;4.93;4.00;;;6.00;99.90;;;;;;2070468;28;20026;-71
2022/11/12 02:19:14;;;;;;;4.43;4.00;;;6.00;99.90;;;;;;2069842;28;20021;-71
2022/11/12 02:20:14;;;;;;;4.82;3.70;;;6.00;99.90;;;;;;2070142;28;20163;-71
2022/11/12 02:21:23;;;;;;;4.65;3.90;;;6.00;99.90;;;;;;2069646;28;20025;-71
2022/11/12 02:22:23;;;;;;;5.60;4.13;;;6.00;99.90;;;;;;2070668;28;20038;-71
2022/11/12 02:23:24;;;;;;;4.78;4.20;;;6.00;99.90;;;;;;2070819;28;20029;-71
2022/11/12 02:24:24;;;;;;;5.93;4.25;;;6.00;99.90;;;;;;2070908;28;20033;-71
2022/11/12 02:25:26;;;;;;;4.55;3.92;;;6.00;99.90;;;;;;2071736;28;20068;-70
2022/11/12 02:26:31;;;;;;;4.28;3.83;;;5.90;99.90;;;;;;2070615;28;20050;-71
2022/11/12 02:27:31;;;;;;;6.45;4.32;;;5.90;99.90;;;;;;2070992;28;20032;-71
2022/11/12 02:28:32;;;;;;;5.72;4.63;;;5.90;99.90;;;;;;2070985;28;20049;-71
2022/11/12 02:29:33;;;;;;;4.88;4.22;;;6.00;99.90;;;;;;2072211;28;20085;-71
2022/11/12 02:30:40;;;;;;;4.72;4.22;;;6.00;99.90;;;;;;2070220;28;20036;-71
2022/11/12 02:31:40;;;;;;;6.00;4.18;;;6.00;99.90;;;;;;2070028;28;20057;-71
2022/11/12 02:32:41;;;;;;;5.65;4.25;;;6.00;99.90;;;;;;2068929;28;20030;-71
2022/11/12 02:33:41;;;;;;;4.38;3.53;;;5.90;99.90;;;;;;2068619;28;20026;-71
2022/11/12 02:34:42;;;;;;;4.90;4.40;;;5.90;99.90;;;;;;2070814;28;20029;-71
2022/11/12 02:35:42;;;;;;;6.03;4.68;;;5.90;99.90;;;;;;2071021;28;20026;-71
2022/11/12 02:36:43;;;;;;;4.50;4.10;;;5.90;99.90;;;;;;2078126;28;20091;-71
2022/11/12 02:37:43;;;;;;;4.45;3.85;;;5.90;99.90;;;;;;2071584;28;20037;-71
2022/11/12 02:38:44;;;;;;;5.13;3.83;;;5.90;99.90;;;;;;2070789;28;20033;-71
2022/11/12 02:39:44;;;;;;;6.25;4.22;;;5.90;99.90;;;;;;2069420;28;20037;-71
2022/11/12 02:40:45;;;;;;;5.57;4.65;;;5.90;99.90;;;;;;2079321;28;20026;-71
2022/11/12 02:41:46;;;;;;;6.47;4.30;;;5.90;99.90;;;;;;2077308;28;20018;-71
2022/11/12 02:42:46;;;;;;;4.90;3.70;;;5.90;99.90;;;;;;2070478;28;20049;-71
2022/11/12 02:43:47;;;;;;;4.97;4.13;;;5.90;99.90;;;;;;2070939;28;20113;-71
2022/11/12 02:44:47;;;;;;;4.40;4.00;;;5.90;99.90;;;;;;2070738;28;20041;-70
2022/11/12 02:45:48;;;;;;;5.35;4.32;;;5.90;99.90;;;;;;2071201;28;20671;-70
2022/11/12 02:46:48;;;;;;;5.93;4.55;;;5.90;99.90;;;;;;2071069;28;20029;-70
2022/11/12 02:47:49;;;;;;;4.95;3.70;;;5.90;99.90;;;;;;2068851;28;20037;-70
2022/11/12 02:48:49;;;;;;;5.70;4.20;;;5.90;99.90;;;;;;2069847;28;20110;-70
2022/11/12 02:49:50;;;;;;;6.90;4.43;;;5.90;99.90;;;;;;2071835;28;20396;-70
2022/11/12 02:50:50;;;;;;;5.35;4.07;;;5.90;99.90;;;;;;2070223;28;20393;-70
2022/11/12 02:51:51;;;;;;;4.55;4.15;;;5.90;99.90;;;;;;2072163;28;20053;-70
2022/11/12 02:52:51;;;;;;;4.53;3.97;;;5.80;99.90;;;;;;2069437;28;20165;-70
2022/11/12 02:53:52;;;;;;;3.97;3.58;;;5.80;99.90;;;;;;2070960;28;20018;-70
2022/11/12 02:54:52;;;;;;;4.10;3.50;;;5.90;99.90;;;;;;2072487;28;20033;-70
2022/11/12 02:55:53;;;;;;;5.00;3.60;;;5.80;99.90;;;;;;2069858;28;20076;-70
2022/11/12 02:56:53;;;;;;;5.15;4.22;;;5.90;99.90;;;;;;2070978;28;20022;-70
2022/11/12 02:57:57;;;;;;;7.07;4.43;;;5.80;99.90;;;;;;2068737;28;20057;-71
2022/11/12 02:58:58;;;;;;;5.35;4.15;;;5.80;99.90;;;;;;2071640;28;20351;-71
2022/11/12 02:59:58;;;;;;;6.95;4.25;;;5.80;99.90;;;;;;2070528;28;20061;-71
2022/11/12 03:00:59;;;;;;;5.25;3.45;;;5.80;99.90;;;;;;2069951;28;20714;-71
2022/11/12 03:01:59;;;;;;;5.80;4.07;;;5.90;99.90;;;;;;2070796;28;20128;-71
2022/11/12 03:03:00;;;;;;;4.50;4.10;;;5.80;99.90;;;;;;2068376;28;20025;-70
2022/11/12 03:04:01;;;;;;;4.10;3.70;;;5.90;99.90;;;;;;2070043;28;20026;-71
2022/11/12 03:05:01;;;;;;;5.60;4.22;;;5.80;99.90;;;;;;2071667;28;20061;-71
2022/11/12 03:06:02;;;;;;;5.63;4.45;;;5.80;99.90;;;;;;2071183;28;20014;-71
2022/11/12 03:07:02;;;;;;;4.72;4.05;;;5.80;99.90;;;;;;2070387;28;20022;-71
2022/11/12 03:08:06;;;;;;;5.72;4.47;;;5.80;99.90;;;;;;2070832;28;20144;-70
2022/11/12 03:09:06;;;;;;;4.10;3.70;;;5.80;99.90;;;;;;2071016;28;20064;-70
2022/11/12 03:10:07;;;;;;;5.82;4.03;;;5.80;99.90;;;;;;2069216;28;20022;-70
2022/11/12 03:11:11;;;;;;;4.32;3.72;;;5.80;99.90;;;;;;2072260;28;20025;-70
2022/11/12 03:12:11;;;;;;;4.57;3.95;;;5.80;99.90;;;;;;2069757;28;20030;-70
2022/11/12 03:13:12;;;;;;;4.60;4.15;;;5.80;99.90;;;;;;2070423;28;20552;-70
2022/11/12 03:14:12;;;;;;;4.55;4.03;;;5.80;99.90;;;;;;2071266;28;20033;-70
2022/11/12 03:15:13;;;;;;;4.65;4.03;;;5.80;99.90;;;;;;2070780;28;20029;-70
2022/11/12 03:16:13;;;;;;;5.97;4.40;;;5.80;99.90;;;;;;2071686;28;20026;-70
2022/11/12 03:17:14;;;;;;;5.70;4.63;;;5.80;99.90;;;;;;2070869;28;20026;-70
2022/11/12 03:18:15;;;;;;;4.38;3.83;;;5.80;99.90;;;;;;2070459;28;20049;-70
2022/11/12 03:19:15;;;;;;;6.28;4.18;;;5.80;99.90;;;;;;2070891;28;20421;-70
2022/11/12 03:20:16;;;;;;;4.97;4.47;;;5.80;99.90;;;;;;2070377;28;20469;-70
2022/11/12 03:21:16;;;;;;;5.40;4.75;;;5.80;99.90;;;;;;2070885;28;20026;-70
2022/11/12 03:22:17;;;;;;;5.68;4.47;;;5.80;99.90;;;;;;2068939;28;20028;-70
2022/11/12 03:23:17;;;;;;;4.53;3.88;;;5.80;99.90;;;;;;2068326;28;20033;-71
2022/11/12 03:24:18;;;;;;;4.93;4.20;;;5.80;99.90;;;;;;2069904;28;20020;-71
2022/11/12 03:25:18;;;;;;;4.93;4.35;;;5.80;99.90;;;;;;2070667;28;20026;-71
2022/11/12 03:26:19;;;;;;;4.22;3.63;;;5.80;99.90;;;;;;2070763;28;20018;-71
2022/11/12 03:27:19;;;;;;;5.22;3.95;;;5.80;99.90;;;;;;2069850;28;20112;-70
2022/11/12 03:28:20;;;;;;;5.88;4.18;;;5.80;99.90;;;;;;2069992;28;20030;-70
2022/11/12 03:29:20;;;;;;;5.90;4.00;;;5.80;99.90;;;;;;2070074;28;20026;-71
2022/11/12 03:30:21;;;;;;;6.07;4.32;;;5.80;99.90;;;;;;2070045;28;20068;-71
2022/11/12 03:31:22;;;;;;;4.95;3.92;;;5.80;99.90;;;;;;2070477;28;20033;-70
2022/11/12 03:32:22;;;;;;;4.43;4.00;;;5.80;99.90;;;;;;2069639;28;20060;-71
2022/11/12 03:33:23;;;;;;;4.82;4.00;;;5.80;99.90;;;;;;2069467;28;20393;-71
2022/11/12 03:34:24;;;;;;;7.20;4.97;;;5.80;99.90;;;;;;2071037;28;20022;-71
2022/11/12 03:35:25;;;;;;;4.28;3.85;;;5.80;99.90;;;;;;2069515;28;20030;-71
2022/11/12 03:36:26;;;;;;;9.75;4.65;;;5.80;99.90;;;;;;2068972;28;20026;-70
2022/11/12 03:37:26;;;;;;;7.13;4.70;;;5.80;99.90;;;;;;2069236;28;20030;-70
2022/11/12 03:38:27;;;;;;;5.55;4.22;;;5.80;99.90;;;;;;2068109;28;20474;-70
2022/11/12 03:39:27;;;;;;;6.53;4.80;;;5.80;99.90;;;;;;2069832;28;20528;-70
2022/11/12 03:40:28;;;;;;;4.72;4.28;;;5.80;99.90;;;;;;2069455;28;20425;-70
2022/11/12 03:41:28;;;;;;;5.55;4.20;;;5.80;99.90;;;;;;2067741;28;21509;-70
2022/11/12 03:42:29;;;;;;;4.00;3.60;;;5.80;99.90;;;;;;2070653;28;20106;-70
2022/11/12 03:43:29;;;;;;;3.97;3.67;;;5.80;99.90;;;;;;2069575;28;20094;-70
2022/11/12 03:44:30;;;;;;;4.38;4.07;;;5.80;99.90;;;;;;2070638;28;20026;-71
2022/11/12 03:45:30;;;;;;;4.07;3.67;;;5.80;99.90;;;;;;2070578;28;20056;-71
2022/11/12 03:46:31;;;;;;;4.82;4.28;;;5.80;99.90;;;;;;2069455;28;20466;-71
2022/11/12 03:47:32;;;;;;;4.35;3.95;;;5.80;99.90;;;;;;2070575;28;20026;-71
2022/11/12 03:48:32;;;;;;;5.15;3.80;;;5.80;99.90;;;;;;2076725;28;20075;-71
2022/11/12 03:49:32;;;;;;;4.50;3.85;;;5.80;99.90;;;;;;2076643;28;20034;-71
2022/11/12 03:50:33;;;;;;;5.32;4.38;;;5.80;99.90;;;;;;2070880;28;20034;-71
2022/11/12 03:51:33;;;;;;;5.15;4.20;;;5.80;99.90;;;;;;2070527;28;20113;-71
2022/11/12 03:52:34;;;;;;;4.43;4.03;;;5.80;99.90;;;;;;2071611;28;20025;-71
2022/11/12 03:53:35;;;;;;;5.55;5.05;;;5.80;99.90;;;;;;2070195;28;20426;-70
2022/11/12 03:54:35;;;;;;;3.70;3.40;;;5.80;99.90;;;;;;2069108;28;20022;-70
2022/11/12 03:55:36;;;;;;;4.50;3.67;;;5.80;99.90;;;;;;2069641;28;20030;-70
2022/11/12 03:56:36;;;;;;;4.38;3.92;;;5.80;99.90;;;;;;2067701;28;20025;-70
2022/11/12 03:57:37;;;;;;;4.88;3.78;;;5.80;99.90;;;;;;2068920;28;20036;-70
2022/11/12 03:58:37;;;;;;;4.07;3.60;;;5.80;99.90;;;;;;2070115;28;20057;-70
2022/11/12 03:59:38;;;;;;;6.80;4.80;;;5.80;99.90;;;;;;2066519;28;20018;-70
2022/11/12 04:00:38;;;;;;;4.55;4.13;;;5.80;99.90;;;;;;2071861;28;20109;-70
2022/11/12 04:01:39;;;;;;;4.90;4.38;;;5.80;99.90;;;;;;2068910;28;20033;-70
2022/11/12 04:02:39;;;;;;;5.47;4.32;;;5.70;99.90;;;;;;2070389;28;20050;-70
2022/11/12 04:03:40;;;;;;;6.90;4.03;;;5.70;99.90;;;;;;2069837;28;20028;-70
2022/11/12 04:08:39;;;;;;;4.00;3.63;;;5.70;99.90;;;;;;2049582;28;20114;-71
2022/11/12 04:09:40;;;;;;;4.10;3.70;;;5.70;99.90;;;;;;2063944;28;20128;-71
2022/11/12 04:10:40;;;;;;;5.80;3.67;;;5.70;99.90;;;;;;2071500;28;20692;-71
2022/11/12 04:11:41;;;;;;;5.95;4.07;;;5.70;99.90;;;;;;2069330;28;20419;-71
2022/11/12 04:14:00;;;;;;;3.88;3.47;;;5.70;99.90;;;;;;2067688;28;20026;-71
2022/11/12 04:15:01;;;;;;;3.90;3.50;;;5.70;99.90;;;;;;2070234;28;20034;-71
2022/11/12 04:21:50;;;;;;;4.43;4.03;;;5.70;99.90;;;;;;2070190;28;20038;-70
2022/11/12 04:22:50;;;;;;;4.18;3.78;;;5.70;99.90;;;;;;2068783;28;20037;-70
2022/11/12 04:23:51;;;;;;;4.72;3.65;;;5.70;99.90;;;;;;2069353;28;20080;-70
2022/11/12 04:26:23;;;;;;;5.28;3.78;;;5.70;99.90;;;;;;2071022;28;20113;-70
2022/11/12 04:27:28;;;;;;;4.75;3.47;;;5.70;99.90;;;;;;2069591;28;20022;-70
2022/11/12 04:28:28;;;;;;;3.60;3.30;;;5.70;99.90;;;;;;2070447;28;20018;-70
2022/11/12 04:30:48;;;;;;;4.05;3.60;;;5.70;99.90;;;;;;2070759;28;20655;-70
2022/11/12 04:31:49;;;;;;;8.57;3.97;;;5.70;99.90;;;;;;2068307;28;20450;-70
2022/11/12 04:32:53;;;;;;;4.30;3.67;;;5.70;99.90;;;;;;2070678;28;20385;-70
2022/11/12 04:33:53;;;;;;;3.88;3.55;;;5.70;99.90;;;;;;2069495;28;20061;-70
2022/11/12 04:34:54;;;;;;;4.00;3.60;;;5.70;99.90;;;;;;2068847;28;20026;-70
2022/11/12 04:35:55;;;;;;;3.63;3.33;;;5.70;99.90;;;;;;2069981;28;20045;-70
2022/11/12 04:36:55;;;;;;;4.85;3.90;;;5.70;99.90;;;;;;2068641;28;20429;-70
2022/11/12 04:37:56;;;;;;;3.63;3.33;;;5.70;99.90;;;;;;2069000;28;20032;-70
2022/11/12 04:38:56;;;;;;;5.65;3.35;;;5.70;99.90;;;;;;2068568;28;20069;-70
2022/11/12 04:44:58;;;;;;;3.90;3.60;;;5.70;99.90;;;;;;2069536;28;20054;-70
2022/11/12 04:45:15;;;;;;;4.30;3.58;;;5.70;99.90;;;;;;2067521;28;20026;-70
2022/11/12 04:46:15;;;;;;;4.20;3.20;;;5.60;99.90;;;;;;2068865;28;20014;-70
2022/11/12 04:47:16;;;;;;;3.63;3.28;;;5.70;99.90;;;;;;2069451;28;20030;-70
2022/11/12 04:48:17;;;;;;;5.78;3.15;;;5.70;99.90;;;;;;2067539;28;20462;-70
2022/11/12 04:49:18;;;;;;;4.97;3.60;;;5.70;99.90;;;;;;2069059;28;20026;-70
2022/11/12 04:50:18;;;;;;;3.53;3.10;;;5.70;99.90;;;;;;2069702;28;20504;-71
2022/11/12 04:52:38;;;;;;;3.33;3.03;;;5.70;99.90;;;;;;2070427;28;20034;-70
2022/11/12 04:53:38;;;;;;;3.83;3.53;;;5.70;99.90;;;;;;2069042;28;20481;-70
2022/11/12 04:54:39;;;;;;;3.30;3.00;;;5.70;99.90;;;;;;2069565;28;20413;-70
2022/11/12 04:55:39;;;;;;;3.80;3.22;;;5.70;99.90;;;;;;2070644;28;20099;-70
2022/11/12 04:56:40;;;;;;;3.38;3.08;;;5.70;99.90;;;;;;2069193;28;20030;-70
2022/11/12 04:57:40;;;;;;;3.28;2.97;;;5.70;99.90;;;;;;2069008;28;20116;-70
2022/11/12 04:58:41;;;;;;;3.92;3.53;;;5.70;99.90;;;;;;2070082;28;20030;-70
2022/11/12 04:59:41;;;;;;;4.85;3.30;;;5.70;99.90;;;;;;2061586;28;20033;-70
2022/11/12 05:00:42;;;;;;;4.45;3.47;;;5.70;99.90;;;;;;2070328;28;20050;-70
2022/11/12 05:01:42;;;;;;;3.65;3.28;;;5.70;99.90;;;;;;2069570;28;20040;-70
2022/11/12 05:02:43;;;;;;;3.85;3.38;;;5.70;99.90;;;;;;2069684;28;20120;-70
2022/11/12 05:03:43;;;;;;;4.03;3.63;;;5.70;99.90;;;;;;2069199;28;20034;-71
2022/11/12 05:04:44;;;;;;;3.80;3.45;;;5.70;99.90;;;;;;2068774;28;20022;-71
2022/11/12 05:05:44;;;;;;;3.33;2.95;;;5.70;99.90;;;;;;2068738;28;20536;-70
2022/11/12 05:06:51;;;;;;;4.22;3.72;;;5.70;99.90;;;;;;2069036;28;20128;-70
2022/11/12 05:07:51;;;;;;;3.78;3.47;;;5.70;99.90;;;;;;2070234;28;20602;-70
2022/11/12 05:08:52;;;;;;;3.88;3.40;;;5.70;99.90;;;;;;2070701;28;20398;-71
2022/11/12 05:09:52;;;;;;;3.80;3.00;;;5.70;99.90;;;;;;2069326;28;20030;-71
2022/11/12 05:10:53;;;;;;;3.72;3.33;;;5.70;99.90;;;;;;2070566;28;20032;-71
2022/11/12 05:11:54;;;;;;;4.53;3.08;;;5.70;99.90;;;;;;2069041;28;20042;-70
2022/11/12 05:12:55;;;;;;;5.75;3.90;;;5.70;99.90;;;;;;2069178;28;20398;-70
2022/11/12 05:13:55;;;;;;;3.03;2.72;;;5.70;99.90;;;;;;2068906;28;20033;-70
2022/11/12 05:14:56;;;;;;;4.18;3.50;;;5.70;99.90;;;;;;2069667;28;20033;-70
2022/11/12 05:15:56;;;;;;;4.40;3.20;;;5.70;99.90;;;;;;2070153;28;21280;-70
2022/11/12 05:16:57;;;;;;;4.25;3.47;;;5.70;99.90;;;;;;2069951;28;20025;-70
2022/11/12 05:17:57;;;;;;;3.65;3.35;;;5.70;99.90;;;;;;2069748;28;20014;-70
2022/11/12 05:18:58;;;;;;;4.07;3.30;;;5.70;99.90;;;;;;2070596;28;20038;-70
2022/11/12 05:19:59;;;;;;;3.38;3.08;;;5.70;99.90;;;;;;2069002;28;20022;-70
2022/11/12 05:22:04;;;;;;;3.85;3.13;;;5.70;99.90;;;;;;2068947;28;20403;-70
2022/11/12 05:22:20;;;;;;;;;;;5.70;99.90;;;;;;2070584;28;20030;-70
2022/11/12 05:23:20;;;;;;;4.00;3.10;;;5.60;99.90;;;;;;2071041;28;19916;-70
2022/11/12 05:24:21;;;;;;;3.25;2.97;;;5.60;99.90;;;;;;2068260;28;20102;-70
2022/11/12 05:25:21;;;;;;;8.05;3.83;;;5.70;99.90;;;;;;2071030;28;20037;-70
2022/11/12 05:26:22;;;;;;;3.70;3.20;;;5.70;99.90;;;;;;2069720;28;20110;-70
2022/11/12 05:27:22;;;;;;;4.00;3.28;;;5.70;99.90;;;;;;2069646;28;20045;-70
2022/11/12 05:28:23;;;;;;;3.53;3.22;;;5.70;99.90;;;;;;2069480;28;20466;-70
2022/11/12 05:29:23;;;;;;;2.90;2.70;;;5.70;99.90;;;;;;2069672;28;20064;-70
2022/11/12 05:30:24;;;;;;;4.03;3.63;;;5.70;99.90;;;;;;2069284;28;20428;-70
2022/11/12 05:31:24;;;;;;;3.33;3.03;;;5.70;99.90;;;;;;2068116;28;20029;-70
2022/11/12 05:32:25;;;;;;;4.57;3.80;;;5.70;99.90;;;;;;2068015;28;20116;-70
2022/11/12 05:33:26;;;;;;;3.78;3.08;;;5.70;99.90;;;;;;2069687;28;20068;-70
2022/11/12 05:34:26;;;;;;;6.63;3.50;;;5.70;99.90;;;;;;2069993;28;20025;-70
2022/11/12 05:35:27;;;;;;;4.78;3.55;;;5.70;99.90;;;;;;2069436;28;20096;-70
2022/11/12 05:36:27;;;;;;;3.80;3.50;;;5.70;99.90;;;;;;2069673;28;20517;-70
2022/11/12 05:37:28;;;;;;;3.47;3.15;;;5.70;99.90;;;;;;2069247;28;20374;-70
2022/11/12 05:38:29;;;;;;;4.00;3.53;;;5.70;99.90;;;;;;2068648;28;20044;-70
2022/11/12 05:39:29;;;;;;;4.40;3.33;;;5.70;99.90;;;;;;2067028;28;20029;-71
2022/11/12 05:40:30;;;;;;;3.55;3.15;;;5.70;99.90;;;;;;2069310;28;20045;-74
2022/11/12 05:41:30;;;;;;;3.58;3.28;;;5.70;99.90;;;;;;2069786;28;20029;-71
2022/11/12 05:42:31;;;;;;;4.10;3.40;;;5.70;99.90;;;;;;2068009;28;20026;-71
2022/11/12 05:43:31;;;;;;;3.55;3.25;;;5.70;99.90;;;;;;2068866;28;20109;-71